< < Back
Terminal Aerodrome Forecast


Current Version              Previous Versions:   1  2  3  4  5  6  7  8  9  

Terminal Aerodrome Forecast

435
FTUS42 KCAE 011300 AAA
TAFAGS
TAF AMD
KAGS 011328Z 0113/0212 VRB04KT P6SM SCT200
     FM020900 00000KT 3SM BR SCT002=

Latest METAR

896
SAUS70 KWBC 011600 RRR
MTRAGS
METAR KAGS 011553Z 01003KT 10SM CLR 27/17 A3001 RMK AO2 SLP160
T02720172


USA.gov is the U.S. government's official web portal to all federal, state and local government web resources and services.